Time;durP1;ratioP1;P1;durP2;ratioP2;P2;SDS_P1;SDS_P2;PMS_P1;PMS_P2;Temp;Humidity;BMP_temperature;BMP_pressure;BME280_temperature;BME280_humidity;BME280_pressure;Samples;Min_cycle;Max_cycle;Signal;HPM_P1;HPM_P2
2021/09/29 00:01:27;;;;;;;21.60;19.17;;;;;;;17.35;70.72;95568.44;4997470;28;20452;-69
2021/09/29 00:03:54;;;;;;;21.53;19.23;;;;;;;17.24;71.74;95570.38;5022164;28;20502;-70
2021/09/29 00:06:21;;;;;;;20.83;18.13;;;;;;;17.31;71.46;95569.28;5009831;28;20468;-68
2021/09/29 00:08:48;;;;;;;20.70;18.43;;;;;;;16.98;70.90;95542.59;5011228;28;20448;-69
2021/09/29 00:11:14;;;;;;;19.13;17.13;;;;;;;17.08;71.25;95574.25;5020702;28;20918;-67
2021/09/29 00:13:41;;;;;;;20.03;17.37;;;;;;;17.10;71.46;95569.47;5016593;28;20463;-70
2021/09/29 00:16:08;;;;;;;20.73;17.20;;;;;;;17.16;70.87;95575.50;5010391;28;20479;-73
2021/09/29 00:18:35;;;;;;;16.27;14.47;;;;;;;16.71;71.47;95574.06;5019312;28;20451;-70
2021/09/29 00:21:02;;;;;;;18.57;15.67;;;;;;;16.94;71.13;95577.81;5011978;28;20468;-69
2021/09/29 00:23:29;;;;;;;18.77;14.77;;;;;;;16.88;71.13;95566.50;5010158;28;20449;-67
2021/09/29 00:25:57;;;;;;;14.93;12.60;;;;;;;16.83;70.68;95582.44;5009560;28;20463;-70
2021/09/29 00:28:24;;;;;;;14.23;12.27;;;;;;;16.84;70.17;95578.69;5009766;28;20552;-70
2021/09/29 00:31:01;;;;;;;14.37;12.87;;;;;;;16.84;70.49;95576.06;5012933;28;20452;-65
2021/09/29 00:33:29;;;;;;;14.73;11.97;;;;;;;16.86;69.84;95579.22;5024441;28;20444;-69
2021/09/29 00:35:56;;;;;;;14.00;12.60;;;;;;;16.86;69.37;95576.56;5021968;28;20449;-67
2021/09/29 00:38:23;;;;;;;12.87;11.33;;;;;;;16.89;69.89;95581.31;5014013;28;20447;-67
2021/09/29 00:40:50;;;;;;;16.97;11.43;;;;;;;16.95;69.30;95574.91;5010150;28;20441;-68
2021/09/29 00:43:17;;;;;;;12.63;11.17;;;;;;;17.11;68.51;95584.31;5009485;28;20472;-68
2021/09/29 00:45:44;;;;;;;13.00;11.17;;;;;;;17.05;68.30;95580.13;5009913;28;20432;-69
2021/09/29 00:48:11;;;;;;;11.97;10.50;;;;;;;17.01;68.80;95579.09;5009491;28;20493;-67
2021/09/29 00:50:38;;;;;;;12.87;10.30;;;;;;;16.71;68.45;95584.66;5009867;28;20440;-72
2021/09/29 00:53:05;;;;;;;11.27;9.57;;;;;;;16.48;68.50;95580.03;5011097;28;20455;-69
2021/09/29 00:55:34;;;;;;;16.30;10.53;;;;;;;16.62;68.81;95575.72;5023007;28;20436;-68
2021/09/29 00:58:01;;;;;;;11.63;10.10;;;;;;;16.65;68.41;95574.38;5009365;28;20469;-69
2021/09/29 01:00:28;;;;;;;11.83;10.17;;;;;;;16.48;68.10;95544.84;5005032;28;20465;-70
2021/09/29 01:02:54;;;;;;;12.73;9.90;;;;;;;16.72;68.44;95574.84;5000580;28;21276;-67
2021/09/29 01:05:22;;;;;;;14.37;10.90;;;;;;;16.68;68.36;95573.81;5007619;28;21839;-69
2021/09/29 01:08:03;;;;;;;12.57;10.63;;;;;;;16.77;68.61;95578.22;5015485;28;20474;-72
2021/09/29 01:10:36;;;;;;;14.40;10.43;;;;;;;16.74;68.12;95573.50;5026276;28;20440;-70
2021/09/29 01:13:12;;;;;;;13.13;10.63;;;;;;;16.99;68.09;95577.78;5020876;28;20441;-68
2021/09/29 01:15:52;;;;;;;11.53;9.50;;;;;;;17.12;68.29;95572.63;5013761;28;20448;-68
2021/09/29 01:18:22;;;;;;;15.23;9.90;;;;;;;16.99;68.16;95570.63;5009480;28;20455;-70
2021/09/29 01:20:56;;;;;;;14.43;9.90;;;;;;;17.07;68.78;95579.84;5009530;28;21252;-68
2021/09/29 01:23:52;;;;;;;14.33;8.90;;;;;;;16.92;68.13;95575.47;5010205;28;20445;-69
2021/09/29 01:26:27;;;;;;;9.53;8.10;;;;;;;16.70;68.60;95577.75;5024242;28;20487;-69
2021/09/29 01:29:01;;;;;;;12.47;8.63;;;;;;;16.66;68.17;95576.72;5009954;28;20456;-72
2021/09/29 01:31:29;;;;;;;10.97;8.57;;;;;;;16.72;68.12;95588.06;5024934;28;20470;-70
2021/09/29 01:33:58;;;;;;;10.37;7.57;;;;;;;16.61;68.43;95582.06;5018979;28;20818;-67
2021/09/29 01:36:25;;;;;;;10.03;7.80;;;;;;;16.41;67.74;95574.25;5011824;28;20472;-68
2021/09/29 01:38:55;;;;;;;8.73;7.83;;;;;;;16.55;68.12;95585.81;5019258;28;20440;-71
2021/09/29 01:41:24;;;;;;;10.50;7.63;;;;;;;16.49;67.16;95586.13;5016252;28;20452;-71
2021/09/29 01:43:51;;;;;;;9.37;7.83;;;;;;;16.31;68.60;95590.19;5013673;28;20444;-68
2021/09/29 01:46:19;;;;;;;11.43;8.00;;;;;;;16.11;68.24;95590.31;5012207;28;20453;-68
2021/09/29 01:48:58;;;;;;;9.33;8.20;;;;;;;16.39;67.95;95592.25;5012953;28;20437;-71
2021/09/29 01:51:26;;;;;;;14.30;7.83;;;;;;;16.41;67.53;95589.31;5026334;28;20435;-70
2021/09/29 01:53:56;;;;;;;14.00;8.30;;;;;;;16.50;67.29;95591.13;5013405;28;20522;-66
2021/09/29 01:56:23;;;;;;;11.33;7.83;;;;;;;16.50;68.07;95593.00;5012526;28;20969;-71
2021/09/29 01:58:50;;;;;;;14.47;8.37;;;;;;;16.59;67.39;95589.50;5013410;28;20468;-71
2021/09/29 02:01:17;;;;;;;12.57;8.27;;;;;;;16.39;67.17;95591.44;5016686;28;20849;-69
2021/09/29 02:03:46;;;;;;;11.77;8.67;;;;;;;16.43;67.75;95587.97;5027674;28;20535;-70
2021/09/29 02:06:13;;;;;;;13.40;8.03;;;;;;;16.41;66.86;95592.75;5028698;28;20435;-69
2021/09/29 02:08:41;;;;;;;9.53;8.17;;;;;;;16.33;67.32;95597.84;5027818;28;20505;-68
2021/09/29 02:11:07;;;;;;;8.77;7.87;;;;;;;16.34;67.00;95594.91;5012224;28;20448;-70
2021/09/29 02:13:34;;;;;;;10.03;9.00;;;;;;;16.22;67.80;95591.81;5012988;28;20453;-70
2021/09/29 02:16:01;;;;;;;9.70;8.00;;;;;;;16.11;67.52;95591.06;5018665;28;20886;-72
2021/09/29 02:18:28;;;;;;;11.87;8.17;;;;;;;16.18;67.50;95596.84;5013472;28;20452;-69
2021/09/29 02:20:55;;;;;;;11.07;7.57;;;;;;;16.19;67.40;95602.94;5024943;28;20443;-73
2021/09/29 02:23:22;;;;;;;9.13;8.23;;;;;;;16.08;67.88;95601.41;5023537;28;20440;-69
2021/09/29 02:25:49;;;;;;;12.03;8.17;;;;;;;16.11;67.22;95595.59;5017148;28;20453;-67
2021/09/29 02:28:16;;;;;;;10.40;7.73;;;;;;;16.14;67.73;95609.06;5012084;28;20487;-71
2021/09/29 02:30:43;;;;;;;9.50;7.93;;;;;;;16.07;66.97;95602.47;5020431;28;20444;-68
2021/09/29 02:33:11;;;;;;;9.47;7.27;;;;;;;15.93;67.39;95593.56;5015463;28;20440;-70
2021/09/29 02:35:38;;;;;;;10.53;7.50;;;;;;;15.93;67.77;95620.00;5013186;28;20457;-69
2021/09/29 02:38:05;;;;;;;8.83;7.53;;;;;;;15.97;67.86;95607.78;5023238;28;20432;-69
2021/09/29 02:40:32;;;;;;;8.73;7.40;;;;;;;16.03;67.92;95614.66;5021590;28;20456;-71
2021/09/29 02:42:59;;;;;;;8.63;7.23;;;;;;;16.07;67.58;95620.97;5011584;28;20514;-70
2021/09/29 02:45:26;;;;;;;8.13;6.53;;;;;;;16.03;67.46;95614.66;5012326;28;20449;-67
2021/09/29 02:47:52;;;;;;;7.93;7.13;;;;;;;16.08;66.95;95606.69;5011273;28;21070;-69
2021/09/29 02:50:19;;;;;;;8.60;6.30;;;;;;;16.11;66.90;95611.47;5011135;28;20537;-69
2021/09/29 02:52:46;;;;;;;7.90;6.70;;;;;;;16.04;66.48;95618.88;5010289;28;20451;-67
2021/09/29 02:55:13;;;;;;;7.50;6.80;;;;;;;16.19;66.49;95618.81;5010944;28;20527;-66
2021/09/29 02:57:40;;;;;;;8.30;5.97;;;;;;;16.04;66.98;95617.03;5010664;28;20993;-71
2021/09/29 03:00:07;;;;;;;7.13;6.53;;;;;;;15.97;66.87;95607.78;5014953;28;20450;-70
2021/09/29 03:02:34;;;;;;;7.20;6.50;;;;;;;15.81;67.27;95611.56;5025677;28;20444;-69
2021/09/29 03:05:03;;;;;;;7.73;6.70;;;;;;;15.42;68.51;95614.06;5015292;28;20439;-67
2021/09/29 03:07:30;;;;;;;7.33;6.53;;;;;;;15.58;68.06;95617.47;5016307;28;20503;-69
2021/09/29 03:09:56;;;;;;;7.67;6.87;;;;;;;15.75;67.60;95612.63;5015785;28;20978;-70
2021/09/29 03:12:23;;;;;;;8.60;7.13;;;;;;;15.73;67.67;95604.22;5011047;28;20523;-70
2021/09/29 03:14:50;;;;;;;7.77;6.40;;;;;;;15.59;67.12;95611.13;5013837;28;20447;-66
2021/09/29 03:17:17;;;;;;;8.13;6.30;;;;;;;15.51;67.46;95611.69;5015462;28;20449;-69
2021/09/29 03:19:43;;;;;;;7.67;6.93;;;;;;;15.60;66.93;95615.34;5015771;28;20436;-68
2021/09/29 03:22:10;;;;;;;8.57;7.57;;;;;;;15.55;67.17;95607.41;5026119;28;20949;-70
2021/09/29 03:24:37;;;;;;;7.63;6.93;;;;;;;15.57;67.55;95614.03;5019096;28;20449;-71
2021/09/29 03:27:05;;;;;;;8.77;7.83;;;;;;;15.64;67.52;95605.81;5011763;28;20860;-69
2021/09/29 03:29:32;;;;;;;13.27;7.43;;;;;;;15.44;67.63;95605.88;5012449;28;20452;-69
2021/09/29 03:31:59;;;;;;;10.77;8.07;;;;;;;15.47;68.00;95610.63;5028030;28;20802;-68
2021/09/29 03:34:26;;;;;;;8.93;7.73;;;;;;;15.70;67.13;95610.03;5015280;28;20962;-70
2021/09/29 03:36:53;;;;;;;9.77;7.63;;;;;;;15.67;67.06;95602.66;5016247;28;20452;-67
2021/09/29 03:39:20;;;;;;;8.90;8.00;;;;;;;15.63;68.16;95593.66;5025450;28;20526;-68
2021/09/29 03:41:47;;;;;;;9.43;8.53;;;;;;;15.68;67.94;95601.56;5004360;28;20445;-68
2021/09/29 03:44:14;;;;;;;11.30;8.33;;;;;;;15.61;67.95;95593.94;5020466;28;20447;-66
2021/09/29 03:46:41;;;;;;;9.27;8.13;;;;;;;15.68;68.05;95597.09;5010371;28;20511;-69
2021/09/29 03:49:08;;;;;;;11.77;8.30;;;;;;;15.75;68.18;95591.50;5011015;28;20489;-70
2021/09/29 03:51:35;;;;;;;8.47;7.30;;;;;;;15.95;67.42;95588.78;5001833;28;20452;-72
2021/09/29 03:54:02;;;;;;;9.80;7.67;;;;;;;15.87;67.52;95595.44;5011445;28;20445;-71
2021/09/29 03:56:29;;;;;;;9.23;8.13;;;;;;;15.88;68.18;95590.91;5010485;28;20840;-70
2021/09/29 03:58:56;;;;;;;8.73;7.83;;;;;;;15.88;67.86;95590.91;5007145;28;20852;-68
2021/09/29 04:01:23;;;;;;;9.57;8.30;;;;;;;15.71;67.89;95595.78;5008966;28;20444;-70
2021/09/29 04:03:50;;;;;;;9.80;8.90;;;;;;;15.67;67.87;95589.44;5011482;28;20443;-70
2021/09/29 04:06:17;;;;;;;10.40;8.73;;;;;;;15.66;67.99;95599.19;5022133;28;20450;-70
2021/09/29 04:08:45;;;;;;;9.43;8.40;;;;;;;15.46;68.25;95593.19;5015984;28;20504;-71
2021/09/29 04:11:12;;;;;;;11.23;9.47;;;;;;;15.61;68.11;95607.16;5010503;28;20946;-67
2021/09/29 04:13:39;;;;;;;11.73;9.97;;;;;;;15.49;68.30;95609.28;5000800;28;20449;-71
2021/09/29 04:16:06;;;;;;;11.00;9.90;;;;;;;15.45;67.84;95613.53;5017361;28;20447;-70
2021/09/29 04:18:34;;;;;;;13.47;9.60;;;;;;;15.67;67.08;95615.84;5007136;28;20857;-71
2021/09/29 04:21:01;;;;;;;12.33;9.77;;;;;;;15.67;67.70;95610.56;5020983;28;20457;-69
2021/09/29 04:23:28;;;;;;;11.13;9.87;;;;;;;15.47;67.43;95610.63;5010588;28;20456;-69
2021/09/29 04:25:55;;;;;;;11.40;10.17;;;;;;;15.52;67.62;95624.63;5017223;28;20457;-65
2021/09/29 04:28:22;;;;;;;11.67;10.13;;;;;;;15.51;67.54;95616.97;5010188;28;20472;-70
2021/09/29 04:30:48;;;;;;;14.53;10.57;;;;;;;15.27;67.56;95615.91;5006792;28;20465;-70
2021/09/29 04:33:16;;;;;;;11.77;10.17;;;;;;;15.18;68.40;95616.44;4996415;28;20443;-70
2021/09/29 04:35:42;;;;;;;11.43;10.27;;;;;;;15.16;68.52;95620.44;5008502;28;20437;-68
2021/09/29 04:38:10;;;;;;;12.60;10.83;;;;;;;15.24;68.27;95625.94;5008508;28;20841;-69
2021/09/29 04:40:37;;;;;;;14.03;10.60;;;;;;;15.24;68.74;95627.78;5006551;28;20445;-70
2021/09/29 04:43:05;;;;;;;16.90;10.97;;;;;;;15.07;68.88;95633.34;5006251;28;20579;-67
2021/09/29 04:45:31;;;;;;;133.43;97.23;;;;;;;15.15;68.08;95624.09;5010286;28;20449;-68
2021/09/29 04:48:03;;;;;;;17.37;15.60;;;;;;;15.13;68.40;95624.38;5005501;28;20509;-70
2021/09/29 04:50:30;;;;;;;23.27;20.03;;;;;;;14.95;69.09;95624.91;5010097;28;20539;-68
2021/09/29 04:52:57;;;;;;;17.07;15.27;;;;;;;15.02;68.63;95614.88;5019560;28;20455;-74
2021/09/29 04:55:25;;;;;;;57.93;46.60;;;;;;;15.38;68.03;95635.97;5006706;28;20449;-73
2021/09/29 04:57:52;;;;;;;69.80;62.23;;;;;;;15.39;67.96;95629.63;5005994;28;20863;-73
2021/09/29 05:00:19;;;;;;;15.40;10.67;;;;;;;14.89;68.54;95614.66;5005518;28;20833;-71
2021/09/29 05:02:48;;;;;;;15.70;10.60;;;;;;;15.30;68.06;95626.75;4995110;28;20460;-72
2021/09/29 05:05:16;;;;;;;13.57;11.27;;;;;;;15.15;68.69;95626.75;5009332;28;20499;-69
2021/09/29 05:07:48;;;;;;;14.90;11.40;;;;;;;14.98;69.30;95628.88;5025379;28;20523;-67
2021/09/29 05:10:29;;;;;;;12.17;10.90;;;;;;;15.03;68.73;95648.16;5011158;28;20802;-69
2021/09/29 05:12:59;;;;;;;11.13;9.80;;;;;;;15.09;69.25;95636.53;4998390;28;20528;-66
2021/09/29 05:15:26;;;;;;;32.93;29.23;;;;;;;15.02;69.40;95641.28;5020812;28;20448;-70
2021/09/29 05:17:53;;;;;;;102.57;91.57;;;;;;;15.16;69.46;95631.75;5006622;28;20909;-69
2021/09/29 05:20:23;;;;;;;14.83;11.87;;;;;;;15.27;68.22;95642.31;5009476;28;20449;-69
2021/09/29 05:22:50;;;;;;;11.40;10.30;;;;;;;15.16;68.84;95642.31;5008927;28;20499;-71
2021/09/29 05:25:17;;;;;;;14.87;10.97;;;;;;;15.43;68.19;95651.84;5006735;28;20445;-70
2021/09/29 05:27:44;;;;;;;13.17;10.80;;;;;;;15.27;68.57;95641.25;5006380;28;20500;-69
2021/09/29 05:30:11;;;;;;;11.93;10.60;;;;;;;15.18;68.46;95650.78;5006987;28;20503;-70
2021/09/29 05:32:38;;;;;;;12.77;10.43;;;;;;;15.00;68.51;95655.78;5005132;28;20453;-70
2021/09/29 05:35:05;;;;;;;10.73;9.73;;;;;;;15.24;68.59;95654.19;5017611;28;20436;-70
2021/09/29 05:37:32;;;;;;;10.90;9.80;;;;;;;15.00;68.32;95661.88;5009014;28;20464;-71
2021/09/29 05:39:59;;;;;;;13.90;9.90;;;;;;;15.20;68.09;95661.84;5010758;28;20494;-72
2021/09/29 05:42:26;;;;;;;11.17;9.97;;;;;;;15.31;67.73;95665.28;5008148;28;20482;-69
2021/09/29 05:44:53;;;;;;;10.07;8.93;;;;;;;14.96;68.66;95668.72;5023480;28;20444;-69
2021/09/29 05:47:19;;;;;;;10.27;8.97;;;;;;;15.13;68.29;95669.25;5017497;28;20892;-70
2021/09/29 05:49:46;;;;;;;11.60;9.23;;;;;;;15.29;68.15;95656.06;5009390;28;20441;-72
2021/09/29 05:52:13;;;;;;;10.30;9.30;;;;;;;15.45;67.74;95673.50;5009050;28;20444;-69
2021/09/29 05:54:40;;;;;;;11.43;9.20;;;;;;;15.45;67.80;95673.50;5006637;28;20805;-70
2021/09/29 05:57:07;;;;;;;10.47;9.37;;;;;;;15.25;68.30;95677.69;5008490;28;20480;-71
2021/09/29 05:59:34;;;;;;;12.57;8.60;;;;;;;15.40;68.02;95671.59;5018670;28;20487;-71
2021/09/29 06:02:00;;;;;;;12.67;8.37;;;;;;;15.38;67.67;95680.88;5005561;28;20885;-70
2021/09/29 06:04:28;;;;;;;10.20;8.73;;;;;;;15.25;67.98;95682.19;4999180;28;20451;-70
2021/09/29 06:06:57;;;;;;;8.87;8.03;;;;;;;15.23;67.58;95685.09;5020819;28;20510;-70
2021/09/29 06:09:24;;;;;;;11.80;9.07;;;;;;;15.38;67.87;95686.16;5009513;28;20587;-71
2021/09/29 06:11:51;;;;;;;10.60;9.50;;;;;;;15.24;68.10;95691.97;5020574;28;20502;-69
2021/09/29 06:14:18;;;;;;;12.23;9.07;;;;;;;15.36;67.84;95693.53;5010706;28;20437;-71
2021/09/29 06:16:47;;;;;;;11.97;10.10;;;;;;;15.36;68.30;95698.81;5008451;28;20484;-70
2021/09/29 06:19:16;;;;;;;11.60;10.40;;;;;;;15.34;67.75;95677.97;5008820;28;20429;-72
2021/09/29 06:21:45;;;;;;;14.43;10.23;;;;;;;15.54;67.24;95693.81;5008741;28;20445;-70
2021/09/29 06:24:12;;;;;;;12.17;10.73;;;;;;;15.53;67.89;95699.38;5009114;28;20540;-70
2021/09/29 06:26:39;;;;;;;10.90;9.80;;;;;;;15.27;68.14;95689.84;5011816;28;20439;-72
2021/09/29 06:29:06;;;;;;;12.47;9.00;;;;;;;15.46;67.64;95698.84;5012248;28;20870;-70
2021/09/29 06:31:33;;;;;;;15.33;9.47;;;;;;;15.55;68.00;95697.22;4998417;28;20824;-72
2021/09/29 06:34:00;;;;;;;13.97;9.97;;;;;;;15.46;67.40;95694.34;5012464;28;20449;-70
2021/09/29 06:36:27;;;;;;;13.93;10.47;;;;;;;15.52;67.62;95700.41;5012278;28;20437;-70
2021/09/29 06:38:54;;;;;;;10.50;8.93;;;;;;;15.51;67.54;95698.84;5012891;28;20449;-72
2021/09/29 06:41:21;;;;;;;11.67;9.97;;;;;;;15.59;67.95;95711.50;5011740;28;20440;-70
2021/09/29 06:43:48;;;;;;;10.30;9.30;;;;;;;15.42;68.22;95713.66;5020777;28;20868;-69
2021/09/29 06:46:15;;;;;;;13.67;9.07;;;;;;;15.41;67.96;95718.13;5017185;28;20444;-69
2021/09/29 06:48:42;;;;;;;10.87;8.93;;;;;;;15.38;67.93;95712.56;5024755;28;20484;-70
2021/09/29 06:51:09;;;;;;;13.23;9.63;;;;;;;15.41;67.65;95706.75;5011921;28;20444;-69
2021/09/29 06:53:36;;;;;;;11.93;9.50;;;;;;;15.35;67.91;95708.59;5011945;28;20893;-68
2021/09/29 06:56:05;;;;;;;10.53;9.53;;;;;;;15.28;68.20;95713.34;5011477;28;20805;-72
2021/09/29 06:58:33;;;;;;;10.20;9.10;;;;;;;15.39;67.46;95708.84;5011681;28;20531;-69
2021/09/29 07:01:00;;;;;;;11.50;10.20;;;;;;;15.39;67.91;95708.84;5002556;28;20842;-72
2021/09/29 07:03:28;;;;;;;11.47;10.10;;;;;;;15.39;67.61;95711.50;5008068;28;20841;-72
2021/09/29 07:05:56;;;;;;;11.97;10.70;;;;;;;15.47;68.22;95722.34;5008630;28;20513;-69
2021/09/29 07:08:23;;;;;;;11.80;10.60;;;;;;;15.49;67.15;95719.44;5011559;28;20468;-69
2021/09/29 07:10:51;;;;;;;12.00;10.60;;;;;;;15.62;67.07;95732.13;5011873;28;20820;-69
2021/09/29 07:13:18;;;;;;;11.77;10.57;;;;;;;15.56;66.95;95720.78;5011466;28;20954;-69
2021/09/29 07:15:46;;;;;;;12.03;10.77;;;;;;;15.71;66.92;95717.31;5011649;28;20452;-70
2021/09/29 07:18:14;;;;;;;13.33;10.90;;;;;;;15.71;67.11;95719.94;5011228;28;20970;-72
2021/09/29 07:20:41;;;;;;;11.47;10.30;;;;;;;15.61;67.71;95722.59;5011422;28;20440;-71
2021/09/29 07:23:08;;;;;;;12.30;11.00;;;;;;;15.76;67.22;95722.59;5010776;28;20844;-70
2021/09/29 07:25:37;;;;;;;13.00;11.17;;;;;;;15.76;67.63;95722.59;5011520;28;20479;-70
2021/09/29 07:28:06;;;;;;;14.13;12.27;;;;;;;15.80;67.37;95713.06;5011079;28;20475;-70
2021/09/29 07:30:34;;;;;;;17.67;11.97;;;;;;;15.81;68.18;95722.56;5011532;28;20507;-70
2021/09/29 07:33:03;;;;;;;15.67;12.83;;;;;;;15.66;68.06;95726.03;5011017;28;20448;-71
2021/09/29 07:35:31;;;;;;;17.60;12.53;;;;;;;15.76;68.05;95730.50;5011644;28;20441;-69
2021/09/29 07:37:58;;;;;;;18.33;14.20;;;;;;;15.91;67.62;95735.78;5010637;28;20511;-70
2021/09/29 07:40:25;;;;;;;16.60;12.17;;;;;;;15.83;68.56;95737.09;5011181;28;20452;-70
2021/09/29 07:42:53;;;;;;;17.33;13.20;;;;;;;15.85;68.69;95734.19;5010746;28;20452;-70
2021/09/29 07:45:20;;;;;;;19.27;13.10;;;;;;;15.92;68.72;95740.00;5010256;28;20515;-71
2021/09/29 07:47:47;;;;;;;14.67;12.93;;;;;;;16.02;68.05;95735.47;4996895;28;20466;-71
2021/09/29 07:50:16;;;;;;;16.57;12.97;;;;;;;15.91;68.38;95739.19;5010796;28;20474;-71
2021/09/29 07:52:43;;;;;;;14.20;12.70;;;;;;;16.12;68.11;95743.38;5010996;28;20453;-71
2021/09/29 07:55:12;;;;;;;15.70;13.50;;;;;;;16.10;68.00;95742.06;5015060;28;20448;-68
2021/09/29 07:57:42;;;;;;;16.80;12.43;;;;;;;16.00;67.86;95748.16;5019123;28;21076;-68
2021/09/29 08:00:11;;;;;;;13.97;12.47;;;;;;;16.13;67.61;95746.78;5007918;28;20445;-69
2021/09/29 08:02:42;;;;;;;16.87;12.13;;;;;;;16.07;67.43;95751.34;5000097;28;20803;-70
2021/09/29 08:05:10;;;;;;;17.07;12.13;;;;;;;15.94;67.50;95759.00;4995832;28;20446;-70
2021/09/29 08:07:38;;;;;;;15.33;12.60;;;;;;;15.96;67.43;95752.41;5023344;28;20463;-69
2021/09/29 08:10:07;;;;;;;14.97;12.67;;;;;;;16.04;67.19;95743.13;5010934;28;20542;-69
2021/09/29 08:12:34;;;;;;;17.67;12.07;;;;;;;16.17;67.43;95748.66;5010440;28;20476;-69
2021/09/29 08:15:02;;;;;;;13.40;11.73;;;;;;;16.11;66.36;95751.59;5010766;28;20446;-71
2021/09/29 08:17:29;;;;;;;16.93;12.93;;;;;;;16.19;66.70;95751.00;5009908;28;20959;-69
2021/09/29 08:19:56;;;;;;;15.53;12.40;;;;;;;16.17;67.01;95756.56;5010725;28;20444;-69
2021/09/29 08:22:23;;;;;;;12.67;10.90;;;;;;;16.00;65.95;95756.09;5009901;28;20445;-69
2021/09/29 08:25:12;;;;;;;12.07;10.80;;;;;;;16.13;65.93;95746.78;5010616;28;20487;-69
2021/09/29 08:28:07;;;;;;;12.97;11.60;;;;;;;16.21;65.49;95748.91;5009985;28;20993;-70
2021/09/29 08:35:59;;;;;;;14.80;10.97;;;;;;;16.40;65.34;95747.25;5010438;28;20436;-70
2021/09/29 08:46:21;;;;;;;12.97;10.47;;;;;;;16.29;65.35;95735.13;5023274;28;20451;-71
2021/09/29 08:49:03;;;;;;;17.17;11.17;;;;;;;16.36;64.09;95756.00;5009627;28;20932;-71
2021/09/29 09:16:32;;;;;;;17.50;13.60;;;;;;;16.70;62.24;95763.00;4996372;28;20436;-70
2021/09/29 09:19:03;;;;;;;17.73;13.90;;;;;;;16.84;62.41;95758.69;5009625;28;20448;-71
2021/09/29 09:21:32;;;;;;;26.97;21.13;;;;;;;16.91;63.19;95759.22;5010036;28;20471;-69
2021/09/29 09:24:33;;;;;;;13.80;10.30;;;;;;;17.02;62.41;95754.66;5009897;28;20449;-69
2021/09/29 09:27:02;;;;;;;12.27;10.97;;;;;;;17.31;61.58;95752.06;5010130;28;20494;-69
2021/09/29 09:29:30;;;;;;;13.23;10.23;;;;;;;17.14;61.93;95737.34;5024316;28;20985;-71
2021/09/29 09:32:08;;;;;;;13.07;10.27;;;;;;;17.31;60.59;95746.75;5010410;28;20448;-72
2021/09/29 09:34:37;;;;;;;11.33;9.70;;;;;;;16.70;60.86;95765.66;5009210;28;20441;-71
2021/09/29 09:37:16;;;;;;;14.00;10.87;;;;;;;17.01;62.33;95764.44;5009136;28;20459;-69
2021/09/29 09:39:43;;;;;;;14.47;11.73;;;;;;;16.98;62.59;95767.63;5009678;28;20483;-70
2021/09/29 09:42:10;;;;;;;15.90;11.53;;;;;;;17.10;61.88;95762.00;5009339;28;20817;-68
2021/09/29 09:44:43;;;;;;;12.20;11.00;;;;;;;17.12;61.71;95759.84;5009390;28;20456;-69
2021/09/29 09:47:14;;;;;;;15.87;11.50;;;;;;;17.22;61.50;95760.56;5009352;28;20898;-70
2021/09/29 09:49:55;;;;;;;16.63;11.60;;;;;;;17.18;61.48;95764.06;5009357;28;20485;-67
2021/09/29 09:52:41;;;;;;;12.90;11.43;;;;;;;17.13;61.74;95759.59;5009275;28;20457;-71
2021/09/29 09:55:12;;;;;;;13.27;11.30;;;;;;;17.20;61.29;95762.75;5009075;28;20475;-72
2021/09/29 09:57:41;;;;;;;14.97;11.87;;;;;;;17.20;61.53;95773.34;5008505;28;20473;-70
2021/09/29 10:00:11;;;;;;;15.00;12.33;;;;;;;17.28;61.32;95768.50;5025009;28;20503;-68
2021/09/29 10:02:43;;;;;;;14.43;12.00;;;;;;;17.17;62.45;95763.28;5013640;28;20445;-68
2021/09/29 10:05:13;;;;;;;17.23;12.10;;;;;;;17.19;61.84;95766.44;5012763;28;20452;-69
2021/09/29 10:07:40;;;;;;;13.37;11.47;;;;;;;16.98;61.19;95775.59;5013052;28;20449;-73
2021/09/29 10:13:12;;;;;;;16.87;12.40;;;;;;;17.08;62.02;95764.91;5012617;28;20459;-72
2021/09/29 10:27:15;;;;;;;16.67;12.40;;;;;;;17.00;63.31;95760.22;5011552;28;20447;-69
2021/09/29 10:30:11;;;;;;;15.60;13.20;;;;;;;17.27;62.55;95764.25;5017295;28;20529;-72
2021/09/29 10:32:44;;;;;;;13.00;10.77;;;;;;;17.05;61.21;95768.13;5017338;28;20459;-71
2021/09/29 10:43:20;;;;;;;21.83;12.33;;;;;;;16.99;62.57;95766.56;5012081;28;20499;-69
2021/09/29 10:46:09;;;;;;;12.10;10.70;;;;;;;16.89;61.52;95765.84;5012659;28;20453;-69
2021/09/29 11:30:40;;;;;;;19.60;13.27;;;;;;;17.17;61.78;95742.06;5012429;28;20492;-70
2021/09/29 11:33:19;;;;;;;19.63;13.27;;;;;;;17.10;61.31;95741.59;5010897;28;20467;-70
2021/09/29 11:38:42;;;;;;;18.53;14.77;;;;;;;17.23;61.08;95735.69;5010162;28;20825;-70
2021/09/29 12:12:22;;;;;;;24.50;16.90;;;;;;;17.99;59.22;95735.06;5010267;28;20448;-70
2021/09/29 12:14:51;;;;;;;26.80;18.47;;;;;;;18.19;59.37;95727.66;5010984;28;20451;-69
2021/09/29 12:17:21;;;;;;;21.90;16.90;;;;;;;18.12;58.33;95731.72;5010244;28;20468;-70
2021/09/29 12:19:53;;;;;;;24.63;18.23;;;;;;;18.08;59.40;95736.03;5011007;28;21045;-70
2021/09/29 12:22:22;;;;;;;24.10;19.10;;;;;;;18.09;59.62;95737.59;5010011;28;20452;-71
2021/09/29 12:25:15;;;;;;;24.57;19.00;;;;;;;18.01;58.62;95711.72;5010258;28;21045;-69
2021/09/29 12:33:12;;;;;;;22.57;18.23;;;;;;;18.38;58.48;95719.75;5010074;28;20526;-70
2021/09/29 12:35:54;;;;;;;21.77;16.90;;;;;;;18.27;57.94;95726.25;5010260;28;20452;-71
2021/09/29 12:38:34;;;;;;;19.90;17.00;;;;;;;18.24;57.94;95734.78;5010039;28;21050;-68
2021/09/29 12:41:02;;;;;;;23.63;18.47;;;;;;;18.25;58.79;95722.31;5009903;28;20957;-71
2021/09/29 12:43:29;;;;;;;24.17;18.67;;;;;;;17.93;58.80;95722.91;4996624;28;20432;-70
2021/09/29 12:45:56;;;;;;;24.07;19.97;;;;;;;18.09;58.98;95713.72;5009806;28;20448;-69
2021/09/29 12:48:26;;;;;;;26.97;21.10;;;;;;;18.19;59.38;95719.69;5009739;28;20469;-71
2021/09/29 12:50:59;;;;;;;24.43;19.47;;;;;;;18.28;59.30;95724.41;5010230;28;20484;-69
2021/09/29 12:56:17;;;;;;;24.07;18.93;;;;;;;17.86;58.65;95720.56;5009719;28;20452;-69
2021/09/29 12:58:45;;;;;;;29.20;20.53;;;;;;;17.76;60.12;95720.69;5009576;28;20296;-74
2021/09/29 13:01:13;;;;;;;25.37;20.87;;;;;;;17.98;59.34;95722.84;5009324;28;20992;-70
2021/09/29 13:03:41;;;;;;;25.90;21.60;;;;;;;17.96;59.84;95701.94;5009860;28;20882;-72
2021/09/29 13:06:10;;;;;;;24.70;20.60;;;;;;;17.94;59.67;95727.94;5012966;28;20458;-70
2021/09/29 13:08:37;;;;;;;23.47;19.63;;;;;;;17.92;60.31;95731.94;5016658;28;20962;-70
2021/09/29 13:11:03;;;;;;;24.60;19.47;;;;;;;18.03;59.72;95728.91;5009050;28;20468;-69
2021/09/29 13:13:31;;;;;;;24.80;20.23;;;;;;;17.74;59.40;95720.19;5009831;28;20448;-72
2021/09/29 13:16:00;;;;;;;23.90;19.73;;;;;;;18.07;58.82;95718.50;5009422;28;20503;-71
2021/09/29 13:21:17;;;;;;;24.03;19.17;;;;;;;18.14;58.28;95716.31;5009033;28;20436;-72
2021/09/29 13:23:51;;;;;;;24.83;19.60;;;;;;;18.18;58.39;95725.28;5009735;28;20456;-70
2021/09/29 13:37:18;;;;;;;20.33;14.80;;;;;;;18.25;56.30;95724.97;5013881;28;20461;-72
2021/09/29 13:39:45;;;;;;;22.43;17.87;;;;;;;18.75;56.63;95725.16;5013793;28;20448;-69
2021/09/29 13:42:11;;;;;;;22.20;17.77;;;;;;;19.43;55.46;95714.09;5013557;28;20878;-71
2021/09/29 13:44:38;;;;;;;20.93;17.20;;;;;;;19.52;53.71;95722.97;5012934;28;20444;-69
2021/09/29 13:47:05;;;;;;;19.83;16.80;;;;;;;18.94;54.76;95712.66;5012858;28;20453;-70
2021/09/29 13:49:32;;;;;;;17.17;15.23;;;;;;;18.57;55.85;95707.34;5012858;28;20869;-70
2021/09/29 13:52:00;;;;;;;18.00;16.00;;;;;;;18.70;54.79;95716.47;5012886;28;20202;-70
2021/09/29 13:54:27;;;;;;;17.83;15.47;;;;;;;18.56;55.91;95711.06;5013486;28;20444;-69
2021/09/29 13:57:13;;;;;;;18.67;16.03;;;;;;;19.02;55.25;95717.34;5012832;28;20437;-70
2021/09/29 14:30:17;;;;;;;19.73;16.53;;;;;;;18.00;56.92;95723.38;5007302;28;20482;-70
2021/09/29 14:35:17;;;;;;;21.93;18.10;;;;;;;17.93;58.26;95722.91;5022631;28;21251;-71
2021/09/29 14:37:44;;;;;;;20.93;16.80;;;;;;;17.66;58.52;95725.31;5011355;28;21044;-71
2021/09/29 14:40:11;;;;;;;19.83;16.63;;;;;;;17.80;57.84;95726.22;5012726;28;20452;-70
2021/09/29 14:42:38;;;;;;;20.90;17.67;;;;;;;17.65;58.19;95724.50;5013313;28;20464;-69